x

Capers Nearshore (cap 2) (41029) Weather Station

3:08am - Fri 27th May 2016 All times are EDT. -4 hours from GMT.

  • Wind
    9mph, 13mph gusts
  • Sea Temp 76°f
  • Air Temp 76°f
  • Sea Pressure 1019.4mb
  • Capers Nearshore (cap 2)
  • Capers Nearshore (cap 2)

More Historic Weather Station data

Upgrade to MSW Pro to gain access to the past 30 days of data for over 8000 Wavebouys and Weather Stations around the globe.

Join Pro

Comparision Forecast

View Surf forecast
   
Fri 05/27 3:08am 9 13 mph 1019.4mb 76f 76f
2:08am 13 18 mph 1019.9mb 76f 77f
1:08am 13 18 mph 1020.1mb 77f 77f
12:08am 13 18 mph 1020.3mb 77f 77f
Thu 05/26 11:08pm 11 13 mph 1020.9mb 77f 77f
10:08pm 11 13 mph 1020.6mb 77f 77f
9:08pm 9 13 mph 1020.2mb 77f 77f
8:08pm 9 11 mph 1019.8mb 78f 76f
7:08pm 11 13 mph 1019.7mb 78f 77f
6:08pm 11 13 mph 1020.3mb 78f 77f
5:08pm 9 13 mph 1021mb 78f 77f
4:08pm 9 11 mph 1021.5mb 78f 77f
3:08pm 9
mph
1021.7mb 78f 77f
2:08pm 9 11 mph 1022.2mb 77f 77f
1:08pm 9
mph
1022.7mb 77f 76f
12:08pm 9 11 mph 1023.2mb 76f 76f
11:08am 9 11 mph 1023.1mb 76f 76f
10:08am 7 9 mph 1023.2mb 75f 76f
9:08am 7 11 mph 1023.1mb 75f 76f
8:08am 9 11 mph 1023mb 75f 76f
7:08am 9 11 mph 1022.6mb 75f 76f
6:08am 9 13 mph 1022.4mb 75f 76f
5:08am 11 16 mph 1022mb 75f 75f
4:08am 9 13 mph 1022mb 75f 75f
3:08am 11 18 mph 1022.1mb 75f 75f
2:08am 11 18 mph 1022mb 76f 76f
1:08am 11 13 mph 1022.7mb 75f 76f
12:08am 11 13 mph 1022.9mb 76f 76f
Wed 05/25 11:08pm 11 13 mph 1023.1mb 76f 76f
10:08pm 11 13 mph 1022.6mb 76f 76f
9:08pm 11 13 mph 1022.1mb 76f 76f
8:08pm 11 16 mph 1021.9mb 76f 76f
7:08pm 13 18 mph 1021.7mb 76f 77f
6:08pm 11 16 mph 1022mb 76f 77f
5:08pm 13 18 mph 1022.6mb 76f 77f
4:08pm 11 16 mph 1022.8mb 76f 77f
3:08pm 13 16 mph 1023.2mb 76f 76f
2:08pm 11 16 mph 1023.7mb 76f 76f
1:08pm 9 11 mph 1024.1mb 76f 76f
12:08pm 9 11 mph 1024.3mb 76f 76f
11:08am 7 9 mph 1024.4mb 75f 76f
10:08am 4 7 mph 1024.5mb 75f 75f
9:08am 4 9 mph 1024.2mb 74f 75f
8:08am 4 7 mph 1023.7mb 74f 75f
7:08am 4 7 mph 1023.1mb 74f 74f
6:08am 4 7 mph 1022.5mb 74f 74f
5:08am 4 7 mph 1022.1mb 74f 74f
4:08am 7 11 mph 1021.9mb 74f 74f
3:08am 7 11 mph 1021.9mb 74f 74f
2:08am 9 11 mph 1021.8mb 74f 75f
1:08am 9 11 mph 1022mb 74f 75f
12:08am 9 13 mph 1022.1mb 74f 75f
Tue 05/24 11:08pm 11 16 mph 1022mb 74f 75f
10:08pm 11 16 mph 1021.3mb 74f 75f
9:08pm 11 16 mph 1020.8mb 74f 74f
8:08pm 13 18 mph 1020.4mb 75f 74f
7:08pm 13 20 mph 1019.8mb 75f 74f
6:08pm 13 18 mph 1020mb 75f 74f
5:08pm 13 18 mph 1020mb 75f 74f
4:08pm 13 18 mph 1020.5mb 75f 73f
3:08pm 11 13 mph 1021mb 75f 73f
12:08pm 2 4 mph 1022mb 74f 73f
11:08am 4 7 mph 1021.4mb 74f 71f
10:08am 2
mph
1021.2mb 74f 72f
9:08am 2 4 mph 1021.1mb 74f 71f
8:08am 4 7 mph 1020.3mb 74f 71f
7:08am 4 7 mph 1019.4mb 74f 70f
6:08am 7 9 mph 1018.4mb 74f 68f
5:08am 4 7 mph 1018mb 74f 68f
4:08am 9 13 mph 1017.7mb 74f 69f
3:08am 7 11 mph 1017.5mb 74f 69f
2:08am 7 9 mph 1017.8mb 74f 69f
1:08am 11 13 mph 1017.8mb 74f 70f
12:08am 13 18 mph 1017.4mb 74f 70f
Mon 05/23 11:08pm 11 13 mph 1017.2mb 74f 71f
10:08pm 9 11 mph 1016.5mb 74f 72f
9:08pm 11 16 mph 1015.6mb 74f 73f
8:08pm 11 16 mph 1015mb 75f 73f
7:08pm 11 16 mph 1014.5mb 75f 74f
6:08pm 13 18 mph 1014.2mb 75f 74f
5:08pm 11 18 mph 1013.7mb 75f 75f
4:08pm 7 9 mph 1014.1mb 75f 73f
3:08pm 4 9 mph 1014.2mb 75f 74f
2:08pm 11 16 mph 1014.3mb 75f 73f
1:08pm 2 4 mph 1014.5mb 75f 73f
12:08pm 4 9 mph 1014.8mb 74f 70f
11:08am 7 9 mph 1014.8mb 74f 69f
10:08am 11 16 mph 1014.6mb 74f 67f
9:08am 13 16 mph 1014.2mb 74f 66f